createdAt,value
2022-08-03T00:00:27.524Z,18.43
2022-08-03T00:02:54.576Z,18.37
2022-08-03T00:05:22.225Z,18.34
2022-08-03T00:07:49.615Z,18.31
2022-08-03T00:10:17.483Z,18.33
2022-08-03T00:12:44.341Z,18.34
2022-08-03T00:15:16.457Z,18.34
2022-08-03T00:17:52.360Z,18.27
2022-08-03T00:20:24.111Z,18.31
2022-08-03T00:22:51.664Z,18.28
2022-08-03T00:25:18.697Z,18.25
2022-08-03T00:27:45.847Z,18.27
2022-08-03T00:30:16.941Z,18.30
2022-08-03T00:32:45.285Z,18.32
2022-08-03T00:35:29.345Z,18.28
2022-08-03T00:38:01.044Z,18.27
2022-08-03T00:40:28.397Z,18.28
2022-08-03T00:43:01.543Z,18.27
2022-08-03T00:45:31.953Z,18.29
2022-08-03T00:48:00.126Z,18.28
2022-08-03T00:50:29.629Z,18.25
2022-08-03T00:52:59.663Z,18.25
2022-08-03T00:55:26.694Z,18.28
2022-08-03T00:57:53.828Z,18.28
2022-08-03T01:00:22.982Z,18.29
2022-08-03T01:02:50.311Z,18.28
2022-08-03T01:05:17.709Z,18.21
2022-08-03T01:08:02.875Z,18.19
2022-08-03T01:11:02.904Z,18.11
2022-08-03T01:14:01.509Z,18.14
2022-08-03T01:16:40.378Z,18.13
2022-08-03T01:19:19.285Z,18.10
2022-08-03T01:22:07.176Z,18.04
2022-08-03T01:24:46.004Z,18.01
2022-08-03T01:27:23.643Z,18.02
2022-08-03T01:30:05.052Z,18.02
2022-08-03T01:32:53.303Z,18.03
2022-08-03T01:35:36.723Z,18.01
2022-08-03T01:38:15.773Z,17.96
2022-08-03T01:40:45.440Z,17.96
2022-08-03T01:44:27.759Z,17.91
2022-08-03T01:46:06.966Z,17.83
2022-08-03T01:48:36.407Z,17.82
2022-08-03T01:51:04.514Z,17.83
2022-08-03T01:53:34.107Z,17.85
2022-08-03T01:56:03.832Z,17.84
2022-08-03T01:58:32.455Z,17.77
2022-08-03T02:01:01.706Z,17.74
2022-08-03T02:03:32.054Z,17.71
2022-08-03T02:07:00.863Z,17.73
2022-08-03T02:08:49.686Z,17.72
2022-08-03T02:11:16.987Z,17.70
2022-08-03T02:13:45.956Z,17.70
2022-08-03T02:16:14.310Z,17.68
2022-08-03T02:18:42.454Z,17.69
2022-08-03T02:21:12.128Z,17.67
2022-08-03T02:23:59.189Z,17.68
2022-08-03T02:26:29.717Z,17.68
2022-08-03T02:28:59.564Z,17.69
2022-08-03T02:31:33.252Z,17.69
2022-08-03T02:34:04.740Z,17.71
2022-08-03T02:36:36.763Z,17.69
2022-08-03T02:39:05.419Z,17.66
2022-08-03T02:41:38.315Z,17.65
2022-08-03T02:44:09.798Z,17.60
2022-08-03T02:46:40.822Z,17.57
2022-08-03T02:49:40.653Z,17.58
2022-08-03T02:51:57.456Z,17.59
2022-08-03T02:54:26.769Z,17.62
2022-08-03T02:56:58.199Z,17.67
2022-08-03T02:59:26.732Z,17.66
2022-08-03T03:01:55.220Z,17.69
2022-08-03T03:04:22.770Z,17.70
2022-08-03T03:06:55.165Z,17.71
2022-08-03T03:09:22.961Z,17.74
2022-08-03T03:11:51.588Z,17.76
2022-08-03T03:14:33.667Z,17.75
2022-08-03T03:17:02.370Z,17.72
2022-08-03T03:19:32.577Z,17.72
2022-08-03T03:22:01.712Z,17.75
2022-08-03T03:24:30.252Z,17.75
2022-08-03T03:26:57.863Z,17.77
2022-08-03T03:29:24.919Z,17.80
2022-08-03T03:31:51.795Z,17.81
2022-08-03T03:34:19.433Z,17.82
2022-08-03T03:36:46.325Z,17.81
2022-08-03T03:39:15.608Z,17.77
2022-08-03T03:41:43.763Z,17.73
2022-08-03T03:44:10.828Z,17.67
2022-08-03T03:46:39.076Z,17.66
2022-08-03T03:49:07.564Z,17.64
2022-08-03T03:51:34.749Z,17.60
2022-08-03T03:54:04.276Z,17.56
2022-08-03T03:56:31.596Z,17.56
2022-08-03T03:58:58.580Z,17.58
2022-08-03T04:01:25.851Z,17.63
2022-08-03T04:03:52.716Z,17.66
2022-08-03T04:06:38.167Z,17.66
2022-08-03T04:09:23.717Z,17.69
2022-08-03T04:11:55.160Z,17.73
2022-08-03T04:14:32.770Z,17.72
2022-08-03T04:17:03.582Z,17.73
2022-08-03T04:19:38.691Z,17.73
2022-08-03T04:22:14.081Z,17.78
2022-08-03T04:24:48.993Z,17.75
2022-08-03T04:27:21.212Z,17.80
2022-08-03T04:29:51.707Z,17.82
2022-08-03T04:32:20.462Z,17.83
2022-08-03T04:34:47.635Z,17.81
2022-08-03T04:37:48.938Z,17.86
2022-08-03T04:40:25.321Z,17.87
2022-08-03T04:42:58.728Z,17.92
2022-08-03T04:45:27.332Z,17.93
2022-08-03T04:47:55.168Z,17.95
2022-08-03T04:50:22.800Z,17.95
2022-08-03T04:52:51.165Z,17.92
2022-08-03T04:55:28.622Z,17.88
2022-08-03T04:57:56.208Z,17.88
2022-08-03T05:00:23.372Z,17.85
2022-08-03T05:02:50.271Z,17.87
2022-08-03T05:05:17.692Z,17.90
2022-08-03T05:07:46.140Z,17.90
2022-08-03T05:10:16.446Z,17.89
2022-08-03T05:12:44.953Z,17.92
2022-08-03T05:15:12.436Z,17.89
2022-08-03T05:17:39.420Z,17.93
2022-08-03T05:20:06.938Z,17.94
2022-08-03T05:22:33.971Z,17.90
2022-08-03T05:25:02.398Z,17.93
2022-08-03T05:27:29.557Z,17.92
2022-08-03T05:30:27.297Z,17.89
2022-08-03T05:32:45.486Z,17.95
2022-08-03T05:35:57.349Z,17.96
2022-08-03T05:37:59.219Z,17.99
2022-08-03T05:40:26.808Z,18.02
2022-08-03T05:42:53.857Z,18.02
2022-08-03T05:45:23.205Z,18.13
2022-08-03T05:47:52.252Z,18.24
2022-08-03T05:50:20.317Z,18.37
2022-08-03T05:52:47.579Z,18.49
2022-08-03T05:55:14.830Z,18.63
2022-08-03T05:57:42.285Z,18.81
2022-08-03T06:00:12.942Z,19.02
2022-08-03T06:02:42.960Z,19.14
2022-08-03T06:05:10.521Z,19.15
2022-08-03T06:07:37.564Z,19.14
2022-08-03T06:10:36.814Z,19.08
2022-08-03T06:12:52.743Z,19.23
2022-08-03T06:15:20.629Z,19.36
2022-08-03T06:17:51.608Z,19.36
2022-08-03T06:20:20.090Z,19.33
2022-08-03T06:22:51.345Z,19.20
2022-08-03T06:25:27.814Z,19.18
2022-08-03T06:27:54.699Z,19.09
2022-08-03T06:30:21.719Z,19.11
2022-08-03T06:32:51.741Z,19.14
2022-08-03T06:35:19.899Z,19.13
2022-08-03T06:37:48.816Z,19.19
2022-08-03T06:40:24.259Z,19.23
2022-08-03T06:42:51.518Z,19.30
2022-08-03T06:45:18.736Z,19.29
2022-08-03T06:47:45.654Z,19.34
2022-08-03T06:50:16.894Z,19.34
2022-08-03T06:52:45.489Z,19.36
2022-08-03T06:55:12.509Z,19.37
2022-08-03T06:57:39.466Z,19.45
2022-08-03T07:00:11.847Z,19.48
2022-08-03T07:02:42.769Z,19.65
2022-08-03T07:05:10.410Z,19.83
2022-08-03T07:07:38.060Z,19.92
2022-08-03T07:10:06.518Z,19.96
2022-08-03T07:12:35.355Z,20.02
2022-08-03T07:15:03.979Z,19.96
2022-08-03T07:17:32.459Z,19.86
2022-08-03T07:20:00.075Z,19.79
2022-08-03T07:22:27.229Z,19.79
2022-08-03T07:24:54.290Z,19.82
2022-08-03T07:27:21.511Z,19.75
2022-08-03T07:29:48.393Z,19.64
2022-08-03T07:32:15.567Z,19.42
2022-08-03T07:34:42.691Z,19.39
2022-08-03T07:37:09.816Z,19.34
2022-08-03T07:39:36.845Z,19.31
2022-08-03T07:42:06.723Z,19.29
2022-08-03T07:44:33.598Z,19.26
2022-08-03T07:47:00.443Z,19.21
2022-08-03T07:49:30.731Z,19.19
2022-08-03T07:52:16.614Z,19.16
2022-08-03T07:54:44.082Z,19.14
2022-08-03T07:57:11.323Z,19.15
2022-08-03T07:59:56.665Z,19.16
2022-08-03T08:02:27.079Z,19.19
2022-08-03T08:04:53.943Z,19.28
2022-08-03T08:07:20.813Z,19.33
2022-08-03T08:09:47.972Z,19.37
2022-08-03T08:12:15.748Z,19.40
2022-08-03T08:14:46.099Z,19.37
2022-08-03T08:17:13.553Z,19.39
2022-08-03T08:19:41.488Z,19.50
2022-08-03T08:22:18.527Z,19.62
2022-08-03T08:24:52.330Z,19.72
2022-08-03T08:27:19.396Z,19.91
2022-08-03T08:29:52.675Z,19.98
2022-08-03T08:32:22.497Z,20.23
2022-08-03T08:34:49.400Z,20.42
2022-08-03T08:37:16.265Z,20.30
2022-08-03T08:39:43.117Z,20.20
2022-08-03T08:42:11.399Z,19.74
2022-08-03T08:44:38.212Z,19.61
2022-08-03T08:47:05.808Z,19.54
2022-08-03T08:49:36.109Z,19.43
2022-08-03T08:52:25.165Z,19.60
2022-08-03T08:55:04.672Z,19.56
2022-08-03T08:57:44.756Z,19.71
2022-08-03T09:00:15.541Z,19.88
2022-08-03T09:02:43.711Z,19.89
2022-08-03T09:05:15.642Z,19.89
2022-08-03T09:07:43.872Z,19.79
2022-08-03T09:10:13.803Z,19.92
2022-08-03T09:12:46.104Z,19.97
2022-08-03T09:15:22.064Z,20.17
2022-08-03T09:17:51.225Z,20.10
2022-08-03T09:20:19.399Z,20.01
2022-08-03T09:23:01.723Z,20.05
2022-08-03T09:25:33.812Z,20.27
2022-08-03T09:28:10.402Z,20.40
2022-08-03T09:30:41.808Z,20.44
2022-08-03T09:33:11.968Z,20.57
2022-08-03T09:35:57.359Z,20.65
2022-08-03T09:38:28.709Z,20.58
2022-08-03T09:41:00.482Z,20.57
2022-08-03T09:43:28.106Z,20.52
2022-08-03T09:46:04.518Z,20.59
2022-08-03T09:48:32.704Z,20.76
2022-08-03T09:51:13.331Z,20.94
2022-08-03T09:53:58.694Z,21.11
2022-08-03T09:56:46.082Z,21.20
2022-08-03T09:59:24.154Z,21.24
2022-08-03T10:01:55.993Z,21.49
2022-08-03T10:04:25.549Z,21.55
2022-08-03T10:07:12.844Z,21.62
2022-08-03T10:10:30.937Z,21.63
2022-08-03T10:12:52.782Z,21.58
2022-08-03T10:16:22.946Z,21.48
2022-08-03T10:18:08.402Z,21.57
2022-08-03T10:20:41.554Z,21.58
2022-08-03T10:23:09.709Z,21.62
2022-08-03T10:25:39.389Z,21.56
2022-08-03T10:28:08.212Z,21.54
2022-08-03T10:30:36.784Z,21.59
2022-08-03T10:33:12.308Z,21.65
2022-08-03T10:35:57.939Z,21.84
2022-08-03T10:38:33.110Z,21.97
2022-08-03T10:41:03.887Z,22.14
2022-08-03T10:43:49.178Z,22.15
2022-08-03T10:46:19.935Z,22.16
2022-08-03T10:48:50.101Z,21.99
2022-08-03T10:51:17.824Z,21.87
2022-08-03T10:53:54.804Z,22.02
2022-08-03T10:56:54.561Z,22.04
2022-08-03T10:59:47.324Z,21.90
2022-08-03T11:02:16.257Z,21.97
2022-08-03T11:04:48.521Z,22.26
2022-08-03T11:07:26.504Z,22.24
2022-08-03T11:09:56.399Z,22.28
2022-08-03T11:12:32.808Z,22.27
2022-08-03T11:15:05.584Z,22.31
2022-08-03T11:17:46.252Z,22.44
2022-08-03T11:20:45.988Z,22.08
2022-08-03T11:23:14.714Z,21.92
2022-08-03T11:26:19.905Z,21.79
2022-08-03T11:28:48.289Z,21.93
2022-08-03T11:31:49.675Z,22.01
2022-08-03T11:34:15.560Z,22.08
2022-08-03T11:37:22.143Z,22.19
2022-08-03T11:39:53.434Z,22.26
2022-08-03T11:42:23.843Z,22.36
2022-08-03T11:44:53.190Z,22.44
2022-08-03T11:47:24.756Z,22.52
2022-08-03T11:49:55.732Z,22.37
2022-08-03T11:52:27.135Z,22.35
2022-08-03T11:54:56.616Z,22.32
2022-08-03T11:59:19.156Z,22.42
2022-08-03T12:00:28.386Z,22.38
2022-08-03T12:03:01.965Z,22.53
2022-08-03T12:05:52.710Z,22.76
2022-08-03T12:08:41.578Z,22.77
2022-08-03T12:11:11.197Z,22.78
2022-08-03T12:14:44.067Z,22.85
2022-08-03T12:16:38.598Z,22.65
2022-08-03T12:19:09.175Z,22.69
2022-08-03T12:21:57.139Z,22.68
2022-08-03T12:24:24.592Z,22.84
2022-08-03T12:26:59.382Z,22.64
2022-08-03T12:29:27.936Z,22.65
2022-08-03T12:31:55.999Z,22.82
2022-08-03T12:34:23.424Z,22.86
2022-08-03T12:36:52.629Z,23.03
2022-08-03T12:39:25.073Z,23.06
2022-08-03T12:41:56.950Z,23.11
2022-08-03T12:44:31.643Z,23.12
2022-08-03T12:47:00.212Z,23.25
2022-08-03T12:49:27.493Z,23.27
2022-08-03T12:52:05.274Z,23.24
2022-08-03T12:54:36.065Z,23.39
2022-08-03T12:57:11.333Z,23.39
2022-08-03T12:59:53.510Z,23.35
2022-08-03T13:02:26.399Z,23.38
2022-08-03T13:04:54.659Z,23.47
2022-08-03T13:07:22.675Z,23.53
2022-08-03T13:09:55.291Z,23.58
2022-08-03T13:12:28.586Z,23.63
2022-08-03T13:14:57.385Z,23.51
2022-08-03T13:17:24.930Z,23.37
2022-08-03T13:19:52.121Z,23.53
2022-08-03T13:22:30.336Z,23.72
2022-08-03T13:24:57.841Z,23.70
2022-08-03T13:28:03.863Z,23.56
2022-08-03T13:30:13.036Z,23.57
2022-08-03T13:32:40.037Z,23.56
2022-08-03T13:35:08.092Z,23.45
2022-08-03T13:37:35.558Z,23.47
2022-08-03T13:40:05.724Z,23.50
2022-08-03T13:42:35.649Z,23.59
2022-08-03T13:45:05.430Z,23.60
2022-08-03T13:47:45.536Z,23.58
2022-08-03T13:50:13.668Z,23.74
2022-08-03T13:52:40.663Z,23.74
2022-08-03T13:55:08.354Z,23.68
2022-08-03T13:58:05.234Z,23.76
2022-08-03T14:00:29.278Z,23.94
2022-08-03T14:03:17.371Z,23.99
2022-08-03T14:05:44.609Z,23.87
2022-08-03T14:08:12.243Z,23.82
2022-08-03T14:10:43.157Z,23.80
2022-08-03T14:13:12.198Z,23.73
2022-08-03T14:15:39.307Z,23.79
2022-08-03T14:18:12.668Z,23.89
2022-08-03T14:20:48.989Z,23.75
2022-08-03T14:23:18.926Z,23.69
2022-08-03T14:25:52.388Z,23.76
2022-08-03T14:28:24.019Z,23.83
2022-08-03T14:30:55.958Z,23.73
2022-08-03T14:33:23.510Z,23.68
2022-08-03T14:35:51.781Z,23.61
2022-08-03T14:38:19.092Z,23.57
2022-08-03T14:40:47.914Z,23.67
2022-08-03T14:43:18.114Z,23.60
2022-08-03T14:45:45.079Z,23.63
2022-08-03T14:50:29.294Z,23.67
2022-08-03T14:50:59.434Z,23.70
2022-08-03T14:53:26.284Z,23.70
2022-08-03T14:55:55.624Z,23.64
2022-08-03T14:58:23.773Z,23.65
2022-08-03T15:00:52.392Z,23.62
2022-08-03T15:03:23.585Z,23.47
2022-08-03T15:05:55.490Z,23.44
2022-08-03T15:08:23.882Z,23.43
2022-08-03T15:10:51.038Z,23.34
2022-08-03T15:13:20.461Z,23.44
2022-08-03T15:15:48.381Z,23.47
2022-08-03T15:18:15.492Z,23.46
2022-08-03T15:20:45.373Z,23.43
2022-08-03T15:23:14.542Z,23.42
2022-08-03T15:26:28.840Z,23.41
2022-08-03T15:28:29.439Z,23.62
2022-08-03T15:30:56.726Z,23.63
2022-08-03T15:33:23.631Z,23.53
2022-08-03T15:35:50.639Z,23.40
2022-08-03T15:38:17.713Z,23.39
2022-08-03T15:40:44.915Z,23.33
2022-08-03T15:43:12.129Z,23.31
2022-08-03T15:45:41.939Z,23.24
2022-08-03T15:48:08.988Z,23.31
2022-08-03T15:50:35.896Z,23.37
2022-08-03T15:53:02.886Z,23.37
2022-08-03T15:55:29.769Z,23.36
2022-08-03T15:59:07.626Z,23.27
2022-08-03T16:00:43.634Z,23.20
2022-08-03T16:03:10.962Z,23.28
2022-08-03T16:05:37.874Z,23.29
2022-08-03T16:08:07.084Z,23.23
2022-08-03T16:10:35.976Z,23.24
2022-08-03T16:13:03.015Z,23.21
2022-08-03T16:15:29.827Z,23.19
2022-08-03T16:17:57.461Z,23.21
2022-08-03T16:20:30.967Z,23.20
2022-08-03T16:23:09.105Z,23.11
2022-08-03T16:25:41.798Z,23.02
2022-08-03T16:28:13.962Z,22.90
2022-08-03T16:30:46.124Z,22.94
2022-08-03T16:33:17.286Z,22.89
2022-08-03T16:35:45.244Z,22.90
2022-08-03T16:38:18.206Z,22.80
2022-08-03T16:40:47.153Z,22.83
2022-08-03T16:43:17.877Z,22.86
2022-08-03T16:45:47.207Z,22.88
2022-08-03T16:48:15.276Z,22.95
2022-08-03T16:50:42.342Z,22.88
2022-08-03T16:53:10.094Z,22.92
2022-08-03T16:55:53.764Z,22.96
2022-08-03T16:58:41.322Z,22.88
2022-08-03T17:01:22.098Z,22.85
2022-08-03T17:04:03.196Z,22.83
2022-08-03T17:06:35.533Z,22.78
2022-08-03T17:09:08.639Z,22.72
2022-08-03T17:11:38.732Z,22.58
2022-08-03T17:14:12.719Z,22.52
2022-08-03T17:16:40.706Z,22.47
2022-08-03T17:19:21.794Z,22.47
2022-08-03T17:22:09.129Z,22.46
2022-08-03T17:24:41.349Z,22.38
2022-08-03T17:28:42.107Z,22.42
2022-08-03T17:30:13.337Z,22.40
2022-08-03T17:32:57.722Z,22.35
2022-08-03T17:35:36.349Z,22.24
2022-08-03T17:38:10.306Z,22.23
2022-08-03T17:40:39.565Z,22.12
2022-08-03T17:44:12.900Z,22.13
2022-08-03T17:46:10.593Z,22.06
2022-08-03T17:48:41.432Z,22.12
2022-08-03T17:51:30.797Z,22.06
2022-08-03T17:54:20.180Z,22.08
2022-08-03T17:56:50.026Z,22.03
2022-08-03T17:59:51.389Z,21.98
2022-08-03T18:03:01.977Z,21.95
2022-08-03T18:06:10.846Z,21.86
2022-08-03T18:08:37.136Z,21.72
2022-08-03T18:11:24.272Z,21.72
2022-08-03T18:14:19.869Z,21.79
2022-08-03T18:17:00.819Z,21.70
2022-08-03T18:20:02.857Z,21.73
2022-08-03T18:22:20.703Z,21.81
2022-08-03T18:24:51.269Z,22.36
2022-08-03T18:27:20.752Z,22.27
2022-08-03T18:29:50.898Z,21.94
2022-08-03T18:32:18.650Z,21.67
2022-08-03T18:34:53.169Z,21.42
2022-08-03T18:37:25.753Z,21.39
2022-08-03T18:39:58.930Z,21.30
2022-08-03T18:42:27.226Z,21.26
2022-08-03T18:44:56.269Z,21.12
2022-08-03T18:47:53.071Z,21.14
2022-08-03T18:50:30.642Z,21.15
2022-08-03T18:53:15.711Z,20.79
2022-08-03T18:56:02.293Z,20.82
2022-08-03T18:58:40.767Z,20.69
2022-08-03T19:02:00.976Z,20.67
2022-08-03T19:04:14.879Z,20.54
2022-08-03T19:06:46.290Z,20.46
2022-08-03T19:09:27.821Z,20.40
2022-08-03T19:12:13.365Z,20.36
2022-08-03T19:14:56.682Z,20.27
2022-08-03T19:17:29.517Z,20.21
2022-08-03T19:19:58.166Z,20.12
2022-08-03T19:22:27.377Z,20.00
2022-08-03T19:24:55.614Z,19.94
2022-08-03T19:27:26.904Z,19.90
2022-08-03T19:29:59.435Z,19.82
2022-08-03T19:32:32.919Z,19.82
2022-08-03T19:35:01.633Z,19.69
2022-08-03T19:37:38.283Z,19.62
2022-08-03T19:40:12.555Z,19.51
2022-08-03T19:42:45.870Z,19.50
2022-08-03T19:45:21.497Z,19.44
2022-08-03T19:47:53.620Z,19.43
2022-08-03T19:50:22.051Z,19.39
2022-08-03T19:52:52.211Z,19.33
2022-08-03T19:55:19.439Z,19.27
2022-08-03T19:57:49.239Z,19.23
2022-08-03T20:00:20.090Z,19.17
2022-08-03T20:02:54.611Z,19.06
2022-08-03T20:05:21.969Z,19.07
2022-08-03T20:07:51.383Z,19.02
2022-08-03T20:10:19.598Z,18.94
2022-08-03T20:12:49.632Z,18.87
2022-08-03T20:15:22.281Z,18.82
2022-08-03T20:17:58.852Z,18.80
2022-08-03T20:20:33.392Z,18.77
2022-08-03T20:23:06.626Z,18.65
2022-08-03T20:25:48.501Z,18.59
2022-08-03T20:28:26.757Z,18.60
2022-08-03T20:30:56.021Z,18.61
2022-08-03T20:33:37.754Z,18.57
2022-08-03T20:36:11.282Z,18.54
2022-08-03T20:38:43.520Z,18.44
2022-08-03T20:41:10.932Z,18.41
2022-08-03T20:43:41.168Z,18.37
2022-08-03T20:46:29.216Z,18.34
2022-08-03T20:48:57.328Z,18.32
2022-08-03T20:51:50.067Z,18.27
2022-08-03T20:54:28.908Z,18.18
2022-08-03T20:56:58.345Z,18.09
2022-08-03T20:59:46.860Z,18.00
2022-08-03T21:02:30.458Z,17.99
2022-08-03T21:05:03.416Z,17.96
2022-08-03T21:08:04.548Z,17.92
2022-08-03T21:10:30.633Z,17.90
2022-08-03T21:13:18.183Z,17.81
2022-08-03T21:16:06.954Z,17.75
2022-08-03T21:18:43.374Z,17.71
2022-08-03T21:21:15.381Z,17.62
2022-08-03T21:23:48.806Z,17.62
2022-08-03T21:26:18.929Z,17.58
2022-08-03T21:28:51.952Z,17.55
2022-08-03T21:31:25.638Z,17.47
2022-08-03T21:34:04.776Z,17.44
2022-08-03T21:36:34.332Z,17.39
2022-08-03T21:39:04.661Z,17.30
2022-08-03T21:41:32.661Z,17.25
2022-08-03T21:44:01.041Z,17.16
2022-08-03T21:46:33.223Z,17.11
2022-08-03T21:50:05.364Z,17.08
2022-08-03T21:51:50.631Z,17.01
2022-08-03T21:54:20.814Z,17.10
2022-08-03T21:56:48.489Z,17.02
2022-08-03T21:59:21.866Z,16.93
2022-08-03T22:01:55.452Z,16.88
2022-08-03T22:04:50.560Z,16.84
2022-08-03T22:07:13.682Z,16.83
2022-08-03T22:09:50.177Z,16.74
2022-08-03T22:12:22.826Z,16.67
2022-08-03T22:15:00.070Z,16.62
2022-08-03T22:17:55.147Z,16.58
2022-08-03T22:20:16.914Z,16.51
2022-08-03T22:22:54.962Z,16.38
2022-08-03T22:25:28.772Z,16.34
2022-08-03T22:27:56.075Z,16.29
2022-08-03T22:30:22.963Z,16.28
2022-08-03T22:32:52.950Z,16.18
2022-08-03T22:35:21.546Z,16.14
2022-08-03T22:37:54.083Z,16.12
2022-08-03T22:40:21.423Z,16.08
2022-08-03T22:42:52.511Z,16.00
2022-08-03T22:45:45.105Z,15.97
2022-08-03T22:48:08.605Z,16.02
2022-08-03T22:50:35.737Z,15.96
2022-08-03T22:53:03.017Z,15.95
2022-08-03T22:55:30.049Z,15.91
2022-08-03T22:57:56.846Z,15.88
2022-08-03T23:00:24.674Z,15.86
2022-08-03T23:02:53.886Z,15.85
2022-08-03T23:06:00.278Z,15.87
2022-08-03T23:08:20.219Z,15.86
2022-08-03T23:10:48.792Z,15.81
2022-08-03T23:13:18.406Z,15.80
2022-08-03T23:15:53.119Z,15.81
2022-08-03T23:18:22.052Z,15.80
2022-08-03T23:20:53.008Z,15.79
2022-08-03T23:23:20.749Z,15.75
2022-08-03T23:25:50.471Z,15.72
2022-08-03T23:28:18.093Z,15.70
2022-08-03T23:30:45.784Z,15.64
2022-08-03T23:33:15.185Z,15.59
2022-08-03T23:36:22.648Z,15.53
2022-08-03T23:38:46.194Z,15.53
2022-08-03T23:41:14.710Z,15.45
2022-08-03T23:43:50.949Z,15.40
2022-08-03T23:46:23.995Z,15.35
2022-08-03T23:48:51.229Z,15.30
2022-08-03T23:51:28.006Z,15.32
2022-08-03T23:54:01.494Z,15.26
2022-08-03T23:56:51.822Z,15.20
2022-08-03T23:59:32.256Z,15.19
